Payogasta, Argentina
Current Conditions -  °F | °C
As of 12:00 AM on Saturday 25 Oct 2014 (Local Time) from SASA Reporting Station
Clear Clear  
Wind Chill: 72°   Ceiling: Unl
Heat Index: 72°   Visibility: 6mi
Dew Point: 63°   Wind: 2mph
Humidity: 73%   Direction: 290°WNW
Pressure: 30.12"   Gusts: NA
Location:  25.06°S, 66.03°W
Report Text: SASA 250300Z 29002KT CAVOK 22/17 Q1020
Loading
Personal Weather Stations






























Interactive Weather Map
Tropical Storm Tracking
New forecast layout! Learn more

10-Day Weather Forecast

Advertisements
Track Severe Weather on mobile